Home > Products > Valid Products > TAF

000
FTUS46 KOTX 201128
TAFGEG
TAF
KGEG 201128Z 2012/2112 05005KT P6SM FEW200=



000
FTUS46 KOTX 201128
TAFSFF
TAF
KSFF 201128Z 2012/2112 04004KT P6SM FEW200=



000
FTUS46 KOTX 201128
TAFEAT
TAF
KEAT 201128Z 2012/2112 31006KT P6SM SKC
     FM202200 15005KT P6SM SKC
     FM210300 32005KT P6SM SKC=



000
FTUS46 KOTX 201128
TAFEAT
TAF
KEAT 201128Z 2012/2112 31006KT P6SM SKC
     FM202200 15005KT P6SM SKC
     FM210300 32005KT P6SM SKC=



000
FTUS46 KOTX 201128
TAFPUW
TAF
KPUW 201128Z 2012/2112 VRB02KT P6SM FEW200
     FM201500 10008KT P6SM SKC
     FM210100 VRB02KT P6SM SKC=



000
FTUS46 KOTX 201128
TAFGEG
TAF
KGEG 201128Z 2012/2112 05005KT P6SM FEW200=



000
FTUS46 KOTX 201128
TAFLWS
TAF
KLWS 201128Z 2012/2112 09003KT P6SM FEW200
     FM201800 02005KT P6SM SKC
     FM210300 17004KT P6SM SKC=



000
FTUS46 KOTX 201128
TAFSFF
TAF
KSFF 201128Z 2012/2112 04004KT P6SM FEW200=



000
FTUS46 KOTX 201128
TAFCOE
TAF
KCOE 201128Z 2012/2112 07009KT P6SM FEW200
     FM202000 03004KT P6SM FEW200
     FM210700 05009KT P6SM SKC
      AMD LTD TO CLD AND VIS=



000
FTUS46 KOTX 201128
TAFMWH
TAF
KMWH 201128Z 2012/2112 02004KT P6SM SKC
     FM201700 03008KT P6SM SKC
     FM210300 02004KT P6SM SKC=



000
FTUS46 KOTX 201128
TAFPUW
TAF
KPUW 201128Z 2012/2112 VRB02KT P6SM FEW200
     FM201500 10008KT P6SM SKC
     FM210100 VRB02KT P6SM SKC=



000
FTUS46 KOTX 201128
TAFMWH
TAF
KMWH 201128Z 2012/2112 02004KT P6SM SKC
     FM201700 03008KT P6SM SKC
     FM210300 02004KT P6SM SKC=



000
FTUS46 KOTX 201128
TAFLWS
TAF
KLWS 201128Z 2012/2112 09003KT P6SM FEW200
     FM201800 02005KT P6SM SKC
     FM210300 17004KT P6SM SKC=



000
FTUS46 KOTX 201128
TAFCOE
TAF
KCOE 201128Z 2012/2112 07009KT P6SM FEW200
     FM202000 03004KT P6SM FEW200
     FM210700 05009KT P6SM SKC
      AMD LTD TO CLD AND VIS=



000
FTUS46 KOTX 200520
TAFGEG
TAF
KGEG 200520Z 2006/2106 05005KT P6SM FEW200=



000
FTUS46 KOTX 200520
TAFPUW
TAF
KPUW 200520Z 2006/2106 VRB02KT P6SM FEW200
     FM201500 10008KT P6SM SKC
     FM210100 VRB02KT P6SM SKC=



000
FTUS46 KOTX 200520
TAFLWS
TAF
KLWS 200520Z 2006/2106 12003KT P6SM FEW200
     FM201800 34005KT P6SM SKC
     FM210300 17004KT P6SM SKC=



000
FTUS46 KOTX 200520
TAFCOE
TAF
KCOE 200520Z 2006/2106 14004KT P6SM FEW200
     FM200900 07009KT P6SM FEW200
     FM202000 03007KT P6SM FEW200
      AMD LTD TO CLD AND VIS=



000
FTUS46 KOTX 200520
TAFSFF
TAF
KSFF 200520Z 2006/2106 04004KT P6SM FEW200=



000
FTUS46 KOTX 200520
TAFEAT
TAF
KEAT 200520Z 2006/2106 31009KT P6SM SKC
     FM202200 15007KT P6SM SKC
     FM210300 32005KT P6SM SKC=



000
FTUS46 KOTX 200520
TAFMWH
TAF
KMWH 200520Z 2006/2106 02004KT P6SM SKC
     FM201700 03008KT P6SM SKC=



000
FTUS46 KOTX 200520
TAFSFF
TAF
KSFF 200520Z 2006/2106 04004KT P6SM FEW200=



000
FTUS46 KOTX 200520
TAFEAT
TAF
KEAT 200520Z 2006/2106 31009KT P6SM SKC
     FM202200 15007KT P6SM SKC
     FM210300 32005KT P6SM SKC=



000
FTUS46 KOTX 200520
TAFCOE
TAF
KCOE 200520Z 2006/2106 14004KT P6SM FEW200
     FM200900 07009KT P6SM FEW200
     FM202000 03007KT P6SM FEW200
      AMD LTD TO CLD AND VIS=



000
FTUS46 KOTX 200520
TAFLWS
TAF
KLWS 200520Z 2006/2106 12003KT P6SM FEW200
     FM201800 34005KT P6SM SKC
     FM210300 17004KT P6SM SKC=



000
FTUS46 KOTX 200520
TAFMWH
TAF
KMWH 200520Z 2006/2106 02004KT P6SM SKC
     FM201700 03008KT P6SM SKC=



000
FTUS46 KOTX 200520
TAFPUW
TAF
KPUW 200520Z 2006/2106 VRB02KT P6SM FEW200
     FM201500 10008KT P6SM SKC
     FM210100 VRB02KT P6SM SKC=



000
FTUS46 KOTX 200520
TAFGEG
TAF
KGEG 200520Z 2006/2106 05005KT P6SM FEW200=



000
FTUS46 KOTX 192320
TAFGEG
TAF
KGEG 192320Z 2000/2024 22011KT P6SM SCT070 BKN200
     FM200300 22004KT P6SM SCT200
     FM200700 09003KT P6SM FEW200
     FM201500 06007KT P6SM FEW200=



000
FTUS46 KOTX 192320
TAFEAT
TAF
KEAT 192320Z 2000/2024 31011KT P6SM SCT200
     FM200500 31007KT P6SM FEW200
     FM202100 14006KT P6SM SKC=



000
FTUS46 KOTX 192320
TAFMWH
TAF
KMWH 192320Z 2000/2024 20007KT P6SM SCT200
     FM200500 32005KT P6SM SKC
     FM201700 02008KT P6SM SKC=



000
FTUS46 KOTX 192320
TAFSFF
TAF
KSFF 192320Z 2000/2024 23007KT P6SM BKN070 BKN200
     FM200300 VRB02KT P6SM SCT200
     FM201900 06005KT P6SM FEW200=



000
FTUS46 KOTX 192320
TAFEAT
TAF
KEAT 192320Z 2000/2024 31011KT P6SM SCT200
     FM200500 31007KT P6SM FEW200
     FM202100 14006KT P6SM SKC=



000
FTUS46 KOTX 192320
TAFPUW
TAF
KPUW 192320Z 2000/2024 26006KT P6SM BKN200
     FM200300 VRB02KT P6SM SCT200
     FM201500 11006KT P6SM SKC=



000
FTUS46 KOTX 192320
TAFLWS
TAF
KLWS 192320Z 2000/2024 31003KT P6SM BKN200
     FM200400 13003KT P6SM FEW200
     FM201800 34005KT P6SM SKC=



000
FTUS46 KOTX 192320
TAFPUW
TAF
KPUW 192320Z 2000/2024 26006KT P6SM BKN200
     FM200300 VRB02KT P6SM SCT200
     FM201500 11006KT P6SM SKC=



000
FTUS46 KOTX 192320
TAFCOE
TAF
KCOE 192320Z 2000/2024 24008KT P6SM FEW060 BKN080 BKN200
     FM200300 14004KT P6SM SCT200
     FM200900 07009KT P6SM FEW200
     FM202000 03007KT P6SM FEW200
      AMD LTD TO CLD AND VIS=



000
FTUS46 KOTX 192320
TAFCOE
TAF
KCOE 192320Z 2000/2024 24008KT P6SM FEW060 BKN080 BKN200
     FM200300 14004KT P6SM SCT200
     FM200900 07009KT P6SM FEW200
     FM202000 03007KT P6SM FEW200
      AMD LTD TO CLD AND VIS=



000
FTUS46 KOTX 192320
TAFSFF
TAF
KSFF 192320Z 2000/2024 23007KT P6SM BKN070 BKN200
     FM200300 VRB02KT P6SM SCT200
     FM201900 06005KT P6SM FEW200=



000
FTUS46 KOTX 192320
TAFMWH
TAF
KMWH 192320Z 2000/2024 20007KT P6SM SCT200
     FM200500 32005KT P6SM SKC
     FM201700 02008KT P6SM SKC=



000
FTUS46 KOTX 192320
TAFLWS
TAF
KLWS 192320Z 2000/2024 31003KT P6SM BKN200
     FM200400 13003KT P6SM FEW200
     FM201800 34005KT P6SM SKC=



000
FTUS46 KOTX 192150 AAA
TAFGEG
TAF AMD
KGEG 192150Z 1922/2018 24012KT P6SM SCT150
     FM200300 22004KT P6SM SCT200
     FM200700 09003KT P6SM FEW200
     FM201500 06007KT P6SM SKC=



000
FTUS46 KOTX 192150 AAA
TAFGEG
TAF AMD
KGEG 192150Z 1922/2018 24012KT P6SM SCT150
     FM200300 22004KT P6SM SCT200
     FM200700 09003KT P6SM FEW200
     FM201500 06007KT P6SM SKC=



000
FTUS46 KOTX 191728
TAFLWS
TAF
KLWS 191728Z 1918/2018 VRB04KT P6SM FEW100
     FM192000 30007KT P6SM FEW090
     FM200400 04003KT P6SM FEW150
     FM201600 08005KT P6SM SKC=



000
FTUS46 KOTX 191728
TAFPUW
TAF
KPUW 191728Z 1918/2018 24008KT P6SM SCT150
     FM200300 VRB02KT P6SM SCT200
     FM201000 11006KT P6SM SKC=



000
FTUS46 KOTX 191728
TAFMWH
TAF
KMWH 191728Z 1918/2018 20008KT P6SM SKC
     FM200200 30005KT P6SM SKC
     FM201000 35008KT P6SM SKC=



000
FTUS46 KOTX 191728
TAFEAT
TAF
KEAT 191728Z 1918/2018 30006KT P6SM SCT200
     FM192300 30014KT P6SM FEW200
     FM200900 31006KT P6SM FEW200=



000
FTUS46 KOTX 191728
TAFSFF
TAF
KSFF 191728Z 1918/2018 23008KT P6SM FEW080 SCT150
     FM200300 VRB02KT P6SM SCT200
     FM201200 06005KT P6SM SKC=



000
FTUS46 KOTX 191728
TAFGEG
TAF
KGEG 191728Z 1918/2018 20012KT P6SM SCT150
     FM200300 22004KT P6SM SCT200
     FM200700 09003KT P6SM FEW200
     FM201500 06007KT P6SM SKC=



000
FTUS46 KOTX 191728
TAFCOE
TAF
KCOE 191728Z 1918/2018 22010KT P6SM FEW060 SCT150
     FM200300 14004KT P6SM SCT200
     FM200900 07008KT P6SM FEW200
      AMD LTD TO CLD AND VIS=



000
FTUS46 KOTX 191728
TAFSFF
TAF
KSFF 191728Z 1918/2018 23008KT P6SM FEW080 SCT150
     FM200300 VRB02KT P6SM SCT200
     FM201200 06005KT P6SM SKC=



000
FTUS46 KOTX 191728
TAFMWH
TAF
KMWH 191728Z 1918/2018 20008KT P6SM SKC
     FM200200 30005KT P6SM SKC
     FM201000 35008KT P6SM SKC=



000
FTUS46 KOTX 191728
TAFLWS
TAF
KLWS 191728Z 1918/2018 VRB04KT P6SM FEW100
     FM192000 30007KT P6SM FEW090
     FM200400 04003KT P6SM FEW150
     FM201600 08005KT P6SM SKC=



000
FTUS46 KOTX 191728
TAFGEG
TAF
KGEG 191728Z 1918/2018 20012KT P6SM SCT150
     FM200300 22004KT P6SM SCT200
     FM200700 09003KT P6SM FEW200
     FM201500 06007KT P6SM SKC=



000
FTUS46 KOTX 191728
TAFEAT
TAF
KEAT 191728Z 1918/2018 30006KT P6SM SCT200
     FM192300 30014KT P6SM FEW200
     FM200900 31006KT P6SM FEW200=



000
FTUS46 KOTX 191728
TAFPUW
TAF
KPUW 191728Z 1918/2018 24008KT P6SM SCT150
     FM200300 VRB02KT P6SM SCT200
     FM201000 11006KT P6SM SKC=



000
FTUS46 KOTX 191728
TAFCOE
TAF
KCOE 191728Z 1918/2018 22010KT P6SM FEW060 SCT150
     FM200300 14004KT P6SM SCT200
     FM200900 07008KT P6SM FEW200
      AMD LTD TO CLD AND VIS=



000
FTUS46 KOTX 191638 AAB
TAFCOE
TAF AMD
KCOE 191638Z 1917/2012 22010KT P6SM FEW080 SCT150
     FM200300 14004KT P6SM SCT200
     FM200900 07005KT P6SM FEW015 FEW200
      AMD LTD TO CLD AND VIS=



000
FTUS46 KOTX 191638 AAB
TAFCOE
TAF AMD
KCOE 191638Z 1917/2012 22010KT P6SM FEW080 SCT150
     FM200300 14004KT P6SM SCT200
     FM200900 07005KT P6SM FEW015 FEW200
      AMD LTD TO CLD AND VIS=



000
FTUS46 KOTX 191440 AAA
TAFCOE
TAF AMD
KCOE 191440Z 1915/2012 19006KT P6SM BKN030
     FM191700 22010KT P6SM FEW080 SCT150
     FM200300 14004KT P6SM SCT200
     FM200900 07005KT P6SM FEW015 FEW200
      AMD LTD TO CLD AND VIS=



000
FTUS46 KOTX 191440 AAA
TAFCOE
TAF AMD
KCOE 191440Z 1915/2012 19006KT P6SM BKN030
     FM191700 22010KT P6SM FEW080 SCT150
     FM200300 14004KT P6SM SCT200
     FM200900 07005KT P6SM FEW015 FEW200
      AMD LTD TO CLD AND VIS=



000
FTUS46 KOTX 191128
TAFLWS
TAF
KLWS 191128Z 1912/2012 24005KT P6SM BKN060 BKN120
     FM191600 01005KT P6SM SCT070 SCT150
     FM200400 04003KT P6SM FEW150=



000
FTUS46 KOTX 191128
TAFMWH
TAF
KMWH 191128Z 1912/2012 22008KT P6SM SCT150
     FM200500 30004KT P6SM FEW200=



000
FTUS46 KOTX 191128
TAFPUW
TAF
KPUW 191128Z 1912/2012 24008KT P6SM SCT150
     FM200300 VRB02KT P6SM SCT200=



000
FTUS46 KOTX 191128
TAFSFF
TAF
KSFF 191128Z 1912/2012 22005KT P6SM FEW015 SCT080 BKN150
     FM191700 23008KT P6SM FEW080 SCT150
     FM200300 VRB02KT P6SM SCT200=



000
FTUS46 KOTX 191128
TAFGEG
TAF
KGEG 191128Z 1912/2012 20010KT P6SM FEW070 SCT150
     FM191600 22010KT P6SM FEW070 SCT150
     FM200300 22004KT P6SM SCT200
     FM200700 09003KT P6SM FEW200=



000
FTUS46 KOTX 191128
TAFCOE
TAF
KCOE 191128Z 1912/2012 19006KT P6SM FEW015 BKN080 BKN150
     FM191800 22010KT P6SM FEW080 SCT150
     FM200300 14004KT P6SM SCT200
     FM200900 07005KT P6SM FEW015 FEW200
      AMD LTD TO CLD AND VIS=



000
FTUS46 KOTX 191128
TAFEAT
TAF
KEAT 191128Z 1912/2012 30012KT P6SM BKN150
     FM191500 31006KT P6SM SCT150
     FM192300 30014KT P6SM FEW200
     FM200900 31006KT P6SM FEW200=



000
FTUS46 KOTX 191128
TAFEAT
TAF
KEAT 191128Z 1912/2012 30012KT P6SM BKN150
     FM191500 31006KT P6SM SCT150
     FM192300 30014KT P6SM FEW200
     FM200900 31006KT P6SM FEW200=



000
FTUS46 KOTX 191128
TAFCOE
TAF
KCOE 191128Z 1912/2012 19006KT P6SM FEW015 BKN080 BKN150
     FM191800 22010KT P6SM FEW080 SCT150
     FM200300 14004KT P6SM SCT200
     FM200900 07005KT P6SM FEW015 FEW200
      AMD LTD TO CLD AND VIS=



000
FTUS46 KOTX 191128
TAFPUW
TAF
KPUW 191128Z 1912/2012 24008KT P6SM SCT150
     FM200300 VRB02KT P6SM SCT200=



000
FTUS46 KOTX 191128
TAFMWH
TAF
KMWH 191128Z 1912/2012 22008KT P6SM SCT150
     FM200500 30004KT P6SM FEW200=



000
FTUS46 KOTX 191128
TAFGEG
TAF
KGEG 191128Z 1912/2012 20010KT P6SM FEW070 SCT150
     FM191600 22010KT P6SM FEW070 SCT150
     FM200300 22004KT P6SM SCT200
     FM200700 09003KT P6SM FEW200=



000
FTUS46 KOTX 191128
TAFSFF
TAF
KSFF 191128Z 1912/2012 22005KT P6SM FEW015 SCT080 BKN150
     FM191700 23008KT P6SM FEW080 SCT150
     FM200300 VRB02KT P6SM SCT200=



000
FTUS46 KOTX 191128
TAFLWS
TAF
KLWS 191128Z 1912/2012 24005KT P6SM BKN060 BKN120
     FM191600 01005KT P6SM SCT070 SCT150
     FM200400 04003KT P6SM FEW150=



000
FTUS46 KOTX 190531
TAFSFF
TAF
KSFF 190531Z 1906/2006 24007KT P6SM SCT100 BKN120
     FM190900 22005KT P6SM SCT015 BKN150
     FM191700 23008KT P6SM SCT150
     FM200300 VRB02KT P6SM SCT200=



000
FTUS46 KOTX 190531
TAFSFF
TAF
KSFF 190531Z 1906/2006 24007KT P6SM SCT100 BKN120
     FM190900 22005KT P6SM SCT015 BKN150
     FM191700 23008KT P6SM SCT150
     FM200300 VRB02KT P6SM SCT200=



000
FTUS46 KOTX 190531
TAFLWS
TAF
KLWS 190531Z 1906/2006 30009KT P6SM FEW090 SCT120
     FM191000 VRB05KT P6SM SCT120=



000
FTUS46 KOTX 190531
TAFPUW
TAF
KPUW 190531Z 1906/2006 23011KT P6SM SCT100 BKN150
     FM190900 24006KT P6SM SCT010 SCT120
     FM191900 24009KT P6SM SCT150
     FM200300 VRB02KT P6SM SCT200=



000
FTUS46 KOTX 190531
TAFEAT
TAF
KEAT 190531Z 1906/2006 32012KT P6SM SCT090 BKN150
     FM191200 30008KT P6SM SCT150
     FM192300 30013KT P6SM FEW200=



000
FTUS46 KOTX 190531
TAFCOE
TAF
KCOE 190531Z 1906/2006 24008KT P6SM SCT080 OVC100
     FM190900 19006KT P6SM SCT015 BKN150
     FM191800 22010KT P6SM SCT150
     FM200300 14004KT P6SM SCT200
      AMD LTD TO CLD AND VIS=



000
FTUS46 KOTX 190531
TAFGEG
TAF
KGEG 190531Z 1906/2006 22013KT P6SM BKN090 BKN150
     FM190900 20010KT P6SM SCT010 BKN150
     FM191700 22010KT P6SM SCT150
     FM200300 22004KT P6SM SCT200=



000
FTUS46 KOTX 190531
TAFEAT
TAF
KEAT 190531Z 1906/2006 32012KT P6SM SCT090 BKN150
     FM191200 30008KT P6SM SCT150
     FM192300 30013KT P6SM FEW200=



000
FTUS46 KOTX 190531
TAFCOE
TAF
KCOE 190531Z 1906/2006 24008KT P6SM SCT080 OVC100
     FM190900 19006KT P6SM SCT015 BKN150
     FM191800 22010KT P6SM SCT150
     FM200300 14004KT P6SM SCT200
      AMD LTD TO CLD AND VIS=



000
FTUS46 KOTX 190531
TAFMWH
TAF
KMWH 190531Z 1906/2006 25008KT P6SM SCT120 BKN150
     FM191500 21006KT P6SM SCT150
     FM192100 21009KT P6SM FEW200
     FM200500 30005KT P6SM FEW200=



000
FTUS46 KOTX 190531
TAFLWS
TAF
KLWS 190531Z 1906/2006 30009KT P6SM FEW090 SCT120
     FM191000 VRB05KT P6SM SCT120=



000
FTUS46 KOTX 190531
TAFPUW
TAF
KPUW 190531Z 1906/2006 23011KT P6SM SCT100 BKN150
     FM190900 24006KT P6SM SCT010 SCT120
     FM191900 24009KT P6SM SCT150
     FM200300 VRB02KT P6SM SCT200=



000
FTUS46 KOTX 190531
TAFGEG
TAF
KGEG 190531Z 1906/2006 22013KT P6SM BKN090 BKN150
     FM190900 20010KT P6SM SCT010 BKN150
     FM191700 22010KT P6SM SCT150
     FM200300 22004KT P6SM SCT200=



000
FTUS46 KOTX 190531
TAFMWH
TAF
KMWH 190531Z 1906/2006 25008KT P6SM SCT120 BKN150
     FM191500 21006KT P6SM SCT150
     FM192100 21009KT P6SM FEW200
     FM200500 30005KT P6SM FEW200=



000
FTUS46 KOTX 182320
TAFEAT
TAF
KEAT 182320Z 1900/1924 30018G26KT P6SM SCT090 BKN100
     FM190300 30013KT P6SM SCT100 BKN150
     FM190900 30008KT P6SM SCT150=



000
FTUS46 KOTX 182320
TAFPUW
TAF
KPUW 182320Z 1900/1924 25013G21KT P6SM VCSH BKN090 BKN110
     FM190300 23010KT P6SM SCT090 BKN150
     FM190800 24006KT P6SM SCT010 SCT120
     FM191900 24009KT P6SM SCT120=



000
FTUS46 KOTX 182320
TAFGEG
TAF
KGEG 182320Z 1900/1924 24019G26KT P6SM BKN080 BKN110
     FM190200 23012KT P6SM SCT070 BKN100
     FM190800 20010KT P6SM SCT010 BKN150
     FM191700 22010KT P6SM SCT150=



000
FTUS46 KOTX 182320
TAFGEG
TAF
KGEG 182320Z 1900/1924 24019G26KT P6SM BKN080 BKN110
     FM190200 23012KT P6SM SCT070 BKN100
     FM190800 20010KT P6SM SCT010 BKN150
     FM191700 22010KT P6SM SCT150=



000
FTUS46 KOTX 182320
TAFSFF
TAF
KSFF 182320Z 1900/1924 25010G17KT P6SM BKN080 OVC100
     FM190300 25007KT P6SM SCT090 BKN100
     FM190900 22005KT P6SM SCT015 BKN150
     FM191700 23008KT P6SM SCT150=



000
FTUS46 KOTX 182320
TAFCOE
TAF
KCOE 182320Z 1900/1924 23015KT P6SM VCSH BKN080 OVC100
     FM190300 20010KT P6SM SCT100 BKN120
     FM190900 19006KT P6SM SCT015 BKN150
     FM191800 22010KT P6SM SCT150
      AMD LTD TO CLD AND VIS=



000
FTUS46 KOTX 182320
TAFCOE
TAF
KCOE 182320Z 1900/1924 23015KT P6SM VCSH BKN080 OVC100
     FM190300 20010KT P6SM SCT100 BKN120
     FM190900 19006KT P6SM SCT015 BKN150
     FM191800 22010KT P6SM SCT150
      AMD LTD TO CLD AND VIS=



000
FTUS46 KOTX 182320
TAFEAT
TAF
KEAT 182320Z 1900/1924 30018G26KT P6SM SCT090 BKN100
     FM190300 30013KT P6SM SCT100 BKN150
     FM190900 30008KT P6SM SCT150=



000
FTUS46 KOTX 182320
TAFMWH
TAF
KMWH 182320Z 1900/1924 24014G19KT P6SM VCSH BKN090 OVC110
     FM190200 27011KT P6SM SCT100 BKN150
     FM190800 25004KT P6SM SCT150
     FM191900 21009KT P6SM SCT150=



000
FTUS46 KOTX 182320
TAFMWH
TAF
KMWH 182320Z 1900/1924 24014G19KT P6SM VCSH BKN090 OVC110
     FM190200 27011KT P6SM SCT100 BKN150
     FM190800 25004KT P6SM SCT150
     FM191900 21009KT P6SM SCT150=



000
FTUS46 KOTX 182320
TAFSFF
TAF
KSFF 182320Z 1900/1924 25010G17KT P6SM BKN080 OVC100
     FM190300 25007KT P6SM SCT090 BKN100
     FM190900 22005KT P6SM SCT015 BKN150
     FM191700 23008KT P6SM SCT150=



000
FTUS46 KOTX 182320
TAFPUW
TAF
KPUW 182320Z 1900/1924 25013G21KT P6SM VCSH BKN090 BKN110
     FM190300 23010KT P6SM SCT090 BKN150
     FM190800 24006KT P6SM SCT010 SCT120
     FM191900 24009KT P6SM SCT120=



000
FTUS46 KOTX 182320
TAFLWS
TAF
KLWS 182320Z 1900/1924 31012G19KT P6SM VCSH SCT100 BKN120
     FM190300 26009KT P6SM SCT100 BKN150
     FM190900 VRB04KT P6SM SCT120=



000
FTUS46 KOTX 182320
TAFLWS
TAF
KLWS 182320Z 1900/1924 31012G19KT P6SM VCSH SCT100 BKN120
     FM190300 26009KT P6SM SCT100 BKN150
     FM190900 VRB04KT P6SM SCT120=



000
FTUS46 KOTX 181720
TAFPUW
TAF
KPUW 181720Z 1818/1918 25008KT P6SM SCT060 BKN120
     FM181900 24015G23KT P6SM SCT070 BKN120
     FM182200 25017G26KT P6SM VCSH BKN080 BKN120
     FM190300 25010KT P6SM SCT090 BKN150
     FM190800 24006KT P6SM SCT120=



000
FTUS46 KOTX 181720
TAFMWH
TAF
KMWH 181720Z 1818/1918 20010KT P6SM SCT080 SCT120
     FM181900 25013G23KT P6SM VCSH SCT050 BKN120 BKN150
     FM190200 27011KT P6SM SCT100 BKN150
     FM190800 25004KT P6SM SCT150=



000
FTUS46 KOTX 181720
TAFLWS
TAF
KLWS 181720Z 1818/1918 08005KT 6SM HZ SCT070 BKN120
     FM182000 30012G19KT P6SM SCT100 BKN150
     FM190300 26009KT P6SM SCT100 BKN150
     FM190900 VRB04KT P6SM SCT120=



000
FTUS46 KOTX 181720
TAFCOE
TAF
KCOE 181720Z 1818/1918 17009KT P6SM SCT100 BKN150
     FM181900 22015G24KT P6SM SCT090 BKN120
      TEMPO 1821/1901 -SHRA BKN070 OVC120
     FM190300 20010KT P6SM SCT100 BKN120
      AMD LTD TO CLD AND VIS=



000
FTUS46 KOTX 181720
TAFGEG
TAF
KGEG 181720Z 1818/1918 20010KT P6SM SCT090 BKN120
     FM181900 23015G24KT P6SM SCT070 BKN150
      TEMPO 1821/1901 -SHRA BKN070 BKN100
     FM190200 23012KT P6SM SCT070 BKN100
     FM190800 20010KT P6SM SCT120=



000
FTUS46 KOTX 181720
TAFGEG
TAF
KGEG 181720Z 1818/1918 20010KT P6SM SCT090 BKN120
     FM181900 23015G24KT P6SM SCT070 BKN150
      TEMPO 1821/1901 -SHRA BKN070 BKN100
     FM190200 23012KT P6SM SCT070 BKN100
     FM190800 20010KT P6SM SCT120=



000
FTUS46 KOTX 181720
TAFSFF
TAF
KSFF 181720Z 1818/1918 22006KT P6SM SCT100 BKN130
     FM182000 24011G19KT P6SM SCT080 BKN100
      TEMPO 1822/1901 -SHRA BKN080
     FM190300 25007KT P6SM SCT090 BKN100
     FM190900 23005KT P6SM SCT120=



000
FTUS46 KOTX 181720
TAFLWS
TAF
KLWS 181720Z 1818/1918 08005KT 6SM HZ SCT070 BKN120
     FM182000 30012G19KT P6SM SCT100 BKN150
     FM190300 26009KT P6SM SCT100 BKN150
     FM190900 VRB04KT P6SM SCT120=



000
FTUS46 KOTX 181720
TAFCOE
TAF
KCOE 181720Z 1818/1918 17009KT P6SM SCT100 BKN150
     FM181900 22015G24KT P6SM SCT090 BKN120
      TEMPO 1821/1901 -SHRA BKN070 OVC120
     FM190300 20010KT P6SM SCT100 BKN120
      AMD LTD TO CLD AND VIS=



000
FTUS46 KOTX 181720
TAFEAT
TAF
KEAT 181720Z 1818/1918 30010KT P6SM VCSH SCT080 BKN100 BKN120
     FM182100 30014G22KT P6SM SCT100 BKN130
     FM190000 30019G30KT P6SM SCT100 BKN150
     FM190300 30013KT P6SM SCT100 BKN150
     FM190900 30006KT P6SM SCT150=



000
FTUS46 KOTX 181720
TAFSFF
TAF
KSFF 181720Z 1818/1918 22006KT P6SM SCT100 BKN130
     FM182000 24011G19KT P6SM SCT080 BKN100
      TEMPO 1822/1901 -SHRA BKN080
     FM190300 25007KT P6SM SCT090 BKN100
     FM190900 23005KT P6SM SCT120=



000
FTUS46 KOTX 181720
TAFPUW
TAF
KPUW 181720Z 1818/1918 25008KT P6SM SCT060 BKN120
     FM181900 24015G23KT P6SM SCT070 BKN120
     FM182200 25017G26KT P6SM VCSH BKN080 BKN120
     FM190300 25010KT P6SM SCT090 BKN150
     FM190800 24006KT P6SM SCT120=



000
FTUS46 KOTX 181120
TAFEAT
TAF
KEAT 181120Z 1812/1912 29008KT P6SM VCSH SCT060 BKN080 OVC100
     FM181800 30010KT P6SM SCT080 BKN100 BKN120
     FM182100 30014G22KT P6SM SCT100 BKN130
     FM190000 30019G30KT P6SM SCT100 BKN150
     FM190300 30013KT P6SM SCT100 BKN150
     FM190900 30006KT P6SM SCT150=



000
FTUS46 KOTX 181120
TAFMWH
TAF
KMWH 181120Z 1812/1912 25004KT P6SM SCT080 BKN120 OVC150
     FM181900 25013G23KT P6SM SCT050 BKN100 BKN150
     FM190300 27011KT P6SM SCT100 BKN150
     FM190800 25004KT P6SM SCT150=



000
FTUS46 KOTX 181120
TAFLWS
TAF
KLWS 181120Z 1812/1912 26005KT P6SM SCT070 BKN120
     FM182000 29012G19KT P6SM SCT100 BKN150
     FM190300 26009KT P6SM SCT100 BKN150
     FM190900 VRB04KT P6SM SCT120=



000
FTUS46 KOTX 181120
TAFGEG
TAF
KGEG 181120Z 1812/1912 19005KT P6SM SCT150 BKN180
     FM181400 21010KT P6SM SCT090 BKN120
     FM181900 23015G24KT P6SM VCSH SCT070 BKN100
     FM190200 23012KT P6SM SCT070 BKN100
     FM190800 20010KT P6SM SCT120=



000
FTUS46 KOTX 181120
TAFEAT
TAF
KEAT 181120Z 1812/1912 29008KT P6SM VCSH SCT060 BKN080 OVC100
     FM181800 30010KT P6SM SCT080 BKN100 BKN120
     FM182100 30014G22KT P6SM SCT100 BKN130
     FM190000 30019G30KT P6SM SCT100 BKN150
     FM190300 30013KT P6SM SCT100 BKN150
     FM190900 30006KT P6SM SCT150=



000
FTUS46 KOTX 181120
TAFSFF
TAF
KSFF 181120Z 1812/1912 VRB03KT P6SM SCT150 BKN180
     FM181500 22006KT P6SM SCT100 BKN130
     FM181900 24011G19KT P6SM VCSH SCT080 BKN100
     FM190300 25007KT P6SM SCT090 BKN100
     FM190900 23005KT P6SM SCT120=



000
FTUS46 KOTX 181120
TAFMWH
TAF
KMWH 181120Z 1812/1912 25004KT P6SM SCT080 BKN120 OVC150
     FM181900 25013G23KT P6SM SCT050 BKN100 BKN150
     FM190300 27011KT P6SM SCT100 BKN150
     FM190800 25004KT P6SM SCT150=



000
FTUS46 KOTX 181120
TAFPUW
TAF
KPUW 181120Z 1812/1912 25004KT P6SM SCT060 BKN090 BKN120
     FM181700 25010G17KT P6SM SCT070 BKN120
     FM181900 24015G23KT P6SM SCT070 BKN120
     FM190300 25010KT P6SM SCT090 BKN150
     FM190800 24006KT P6SM SCT120=



000
FTUS46 KOTX 181120
TAFCOE
TAF
KCOE 181120Z 1812/1912 17005KT P6SM SCT100 BKN150
     FM181900 22015G24KT P6SM SCT090 BKN120
     FM190300 20010KT P6SM SCT100 BKN120
      AMD LTD TO CLD AND VIS=



000
FTUS46 KOTX 180522
TAFMWH
TAF
KMWH 180522Z 1806/1906 32005KT P6SM SCT150 BKN200
     FM180900 25004KT P6SM BKN080 OVC120
     FM182000 25013G23KT P6SM SCT050 BKN100 BKN150
     FM190300 27011KT P6SM SCT100 BKN150=



000
FTUS46 KOTX 180522
TAFEAT
TAF
KEAT 180522Z 1806/1906 31008KT P6SM VCSH SCT060 BKN080 OVC100
     FM181800 30010KT P6SM SCT080 BKN100 BKN120
     FM182100 30014G22KT P6SM SCT100 BKN130
     FM190000 30019G30KT P6SM SCT100 BKN150
     FM190300 30013KT P6SM SCT100 BKN150=



000
FTUS46 KOTX 180522
TAFPUW
TAF
KPUW 180522Z 1806/1906 VRB03KT P6SM SCT150 BKN200
     FM181100 25005KT P6SM SCT050 BKN090 BKN120
     FM181700 25010G17KT P6SM SCT070 BKN120
     FM181900 24015G23KT P6SM SCT070 BKN120
     FM190300 25010KT P6SM SCT090 BKN150=



000
FTUS46 KOTX 180522
TAFCOE
TAF
KCOE 180522Z 1806/1906 08005KT P6SM SCT130 BKN180
     FM181200 17006KT P6SM SCT100 BKN150
     FM181900 22015G24KT P6SM SCT090 BKN120
     FM190300 20010KT P6SM SCT100 BKN120
      AMD LTD TO CLD AND VIS=



000
FTUS46 KOTX 180522
TAFGEG
TAF
KGEG 180522Z 1806/1906 15005KT P6SM SCT150 BKN180
     FM181300 21010KT P6SM SCT090 BKN120
     FM181800 23015G24KT P6SM VCSH SCT070 BKN100
     FM190200 23011KT P6SM SCT070 BKN100=



000
FTUS46 KOTX 180522
TAFSFF
TAF
KSFF 180522Z 1806/1906 13005KT P6SM SCT150 BKN180
     FM181500 22006KT P6SM SCT100 BKN130
     FM181900 24011G19KT P6SM VCSH SCT080 BKN100
     FM190300 25007KT P6SM SCT090 BKN100=



000
FTUS46 KOTX 180522
TAFLWS
TAF
KLWS 180522Z 1806/1906 VRB03KT 6SM HZ BKN200
     FM181000 14005KT P6SM SCT080 BKN120
     FM182000 29012G19KT P6SM SCT100 BKN150
     FM190300 26009KT P6SM SCT100 BKN150=



000
FTUS46 KOTX 180522
TAFMWH
TAF
KMWH 180522Z 1806/1906 32005KT P6SM SCT150 BKN200
     FM180900 25004KT P6SM BKN080 OVC120
     FM182000 25013G23KT P6SM SCT050 BKN100 BKN150
     FM190300 27011KT P6SM SCT100 BKN150=



000
FTUS46 KOTX 180522
TAFGEG
TAF
KGEG 180522Z 1806/1906 15005KT P6SM SCT150 BKN180
     FM181300 21010KT P6SM SCT090 BKN120
     FM181800 23015G24KT P6SM VCSH SCT070 BKN100
     FM190200 23011KT P6SM SCT070 BKN100=



000
FTUS46 KOTX 180522
TAFEAT
TAF
KEAT 180522Z 1806/1906 31008KT P6SM VCSH SCT060 BKN080 OVC100
     FM181800 30010KT P6SM SCT080 BKN100 BKN120
     FM182100 30014G22KT P6SM SCT100 BKN130
     FM190000 30019G30KT P6SM SCT100 BKN150
     FM190300 30013KT P6SM SCT100 BKN150=



000
FTUS46 KOTX 180522
TAFPUW
TAF
KPUW 180522Z 1806/1906 VRB03KT P6SM SCT150 BKN200
     FM181100 25005KT P6SM SCT050 BKN090 BKN120
     FM181700 25010G17KT P6SM SCT070 BKN120
     FM181900 24015G23KT P6SM SCT070 BKN120
     FM190300 25010KT P6SM SCT090 BKN150=



000
FTUS46 KOTX 180522
TAFLWS
TAF
KLWS 180522Z 1806/1906 VRB03KT 6SM HZ BKN200
     FM181000 14005KT P6SM SCT080 BKN120
     FM182000 29012G19KT P6SM SCT100 BKN150
     FM190300 26009KT P6SM SCT100 BKN150=



000
FTUS46 KOTX 180522
TAFCOE
TAF
KCOE 180522Z 1806/1906 08005KT P6SM SCT130 BKN180
     FM181200 17006KT P6SM SCT100 BKN150
     FM181900 22015G24KT P6SM SCT090 BKN120
     FM190300 20010KT P6SM SCT100 BKN120
      AMD LTD TO CLD AND VIS=



000
FTUS46 KOTX 180522
TAFSFF
TAF
KSFF 180522Z 1806/1906 13005KT P6SM SCT150 BKN180
     FM181500 22006KT P6SM SCT100 BKN130
     FM181900 24011G19KT P6SM VCSH SCT080 BKN100
     FM190300 25007KT P6SM SCT090 BKN100=



000
FTUS46 KOTX 172320
TAFGEG
TAF
KGEG 172320Z 1800/1824 VRB05KT P6SM SCT100 BKN120 BKN150
     FM180500 15005KT P6SM SCT150 BKN180
     FM181300 21010KT P6SM SCT090 BKN120
     FM181800 23013G22KT P6SM SCT070 BKN100=



000
FTUS46 KOTX 172320
TAFEAT
TAF
KEAT 172320Z 1800/1824 13005KT P6SM SCT100 BKN120 OVC150
     FM180200 14005KT P6SM VCSH FEW100 BKN150 OVC200
     FM180400 31008KT P6SM VCSH SCT060 BKN080 OVC100
     FM181800 30010G15KT P6SM SCT080 BKN100 BKN120
     FM182200 30014G22KT P6SM SCT100 BKN130=



000
FTUS46 KOTX 172320
TAFLWS
TAF
KLWS 172320Z 1800/1824 VRB05KT 6SM HZ FEW120 BKN200
      TEMPO 1800/1803 4SM FU
     FM180300 VRB03KT P6SM BKN200
     FM181200 14005KT P6SM SCT120 BKN150
     FM182000 29012G19KT P6SM SCT100 BKN150=



000
FTUS46 KOTX 172320
TAFLWS
TAF
KLWS 172320Z 1800/1824 VRB05KT 6SM HZ FEW120 BKN200
      TEMPO 1800/1803 4SM FU
     FM180300 VRB03KT P6SM BKN200
     FM181200 14005KT P6SM SCT120 BKN150
     FM182000 29012G19KT P6SM SCT100 BKN150=



000
FTUS46 KOTX 172320
TAFSFF
TAF
KSFF 172320Z 1800/1824 VRB02KT P6SM SCT150 BKN200
     FM180500 13005KT P6SM SCT150 BKN180
     FM181500 22006KT P6SM SCT100 BKN130
     FM181900 24011G19KT P6SM SCT080 BKN100=



000
FTUS46 KOTX 172320
TAFCOE
TAF
KCOE 172320Z 1800/1824 VRB03KT P6SM SCT080 BKN120 BKN150
     FM180300 08005KT P6SM SCT130 BKN180
     FM181200 17006KT P6SM SCT100 BKN150
     FM181900 22013G22KT P6SM SCT090 BKN120
      AMD LTD TO CLD AND VIS=



000
FTUS46 KOTX 172320
TAFMWH
TAF
KMWH 172320Z 1800/1824 21007KT P6SM BKN150 BKN200
     FM180400 32005KT P6SM SCT150 BKN200
     FM180900 25004KT P6SM BKN080 OVC120
     FM182000 25012G20KT P6SM SCT050 BKN100 BKN150=



000
FTUS46 KOTX 172320
TAFCOE
TAF
KCOE 172320Z 1800/1824 VRB03KT P6SM SCT080 BKN120 BKN150
     FM180300 08005KT P6SM SCT130 BKN180
     FM181200 17006KT P6SM SCT100 BKN150
     FM181900 22013G22KT P6SM SCT090 BKN120
      AMD LTD TO CLD AND VIS=



000
FTUS46 KOTX 172320
TAFPUW
TAF
KPUW 172320Z 1800/1824 14006KT 6SM HZ SCT100 BKN150
     FM180300 VRB03KT P6SM SCT150 BKN200
     FM181200 25005KT P6SM SCT090 BKN120
     FM181800 24012G20KT P6SM SCT070 BKN120=



000
FTUS46 KOTX 172320
TAFPUW
TAF
KPUW 172320Z 1800/1824 14006KT 6SM HZ SCT100 BKN150
     FM180300 VRB03KT P6SM SCT150 BKN200
     FM181200 25005KT P6SM SCT090 BKN120
     FM181800 24012G20KT P6SM SCT070 BKN120=



000
FTUS46 KOTX 172320
TAFSFF
TAF
KSFF 172320Z 1800/1824 VRB02KT P6SM SCT150 BKN200
     FM180500 13005KT P6SM SCT150 BKN180
     FM181500 22006KT P6SM SCT100 BKN130
     FM181900 24011G19KT P6SM SCT080 BKN100=



000
FTUS46 KOTX 172320
TAFMWH
TAF
KMWH 172320Z 1800/1824 21007KT P6SM BKN150 BKN200
     FM180400 32005KT P6SM SCT150 BKN200
     FM180900 25004KT P6SM BKN080 OVC120
     FM182000 25012G20KT P6SM SCT050 BKN100 BKN150=



000
FTUS46 KOTX 172320
TAFEAT
TAF
KEAT 172320Z 1800/1824 13005KT P6SM SCT100 BKN120 OVC150
     FM180200 14005KT P6SM VCSH FEW100 BKN150 OVC200
     FM180400 31008KT P6SM VCSH SCT060 BKN080 OVC100
     FM181800 30010G15KT P6SM SCT080 BKN100 BKN120
     FM182200 30014G22KT P6SM SCT100 BKN130=



000
FTUS46 KOTX 172320
TAFGEG
TAF
KGEG 172320Z 1800/1824 VRB05KT P6SM SCT100 BKN120 BKN150
     FM180500 15005KT P6SM SCT150 BKN180
     FM181300 21010KT P6SM SCT090 BKN120
     FM181800 23013G22KT P6SM SCT070 BKN100=



000
FTUS46 KOTX 172221 AAA
TAFLWS
TAF AMD
KLWS 172221Z 1722/1818 31006KT 6SM HZ FEW120 BKN200
      TEMPO 1722/1801 5SM HZ
     FM180300 23005KT P6SM BKN200
     FM180900 24005KT P6SM SCT100 BKN150=



000
FTUS46 KOTX 172221 AAA
TAFLWS
TAF AMD
KLWS 172221Z 1722/1818 31006KT 6SM HZ FEW120 BKN200
      TEMPO 1722/1801 5SM HZ
     FM180300 23005KT P6SM BKN200
     FM180900 24005KT P6SM SCT100 BKN150=



000
FTUS46 KOTX 171720
TAFSFF
TAF
KSFF 171720Z 1718/1818 09004KT P6SM SCT100 BKN150
     FM180000 01003KT P6SM SCT150 BKN200
     FM181000 VRB02KT P6SM SCT100 BKN150
     FM181500 22006KT P6SM SCT080 OVC150=



000
FTUS46 KOTX 171720
TAFMWH
TAF
KMWH 171720Z 1718/1818 21007KT P6SM BKN150 BKN200
     FM180200 35005KT P6SM SCT150 BKN200
     FM180900 25004KT P6SM BKN080 OVC120=



000
FTUS46 KOTX 171720
TAFCOE
TAF
KCOE 171720Z 1718/1818 05008KT P6SM SCT100 BKN150
     FM172100 24006KT P6SM SCT080 BKN120 BKN150
     FM180300 04004KT P6SM SCT100 BKN150
     FM181200 08006KT P6SM BKN100 BKN150
      AMD LTD TO CLD AND VIS=



000
FTUS46 KOTX 171720
TAFCOE
TAF
KCOE 171720Z 1718/1818 05008KT P6SM SCT100 BKN150
     FM172100 24006KT P6SM SCT080 BKN120 BKN150
     FM180300 04004KT P6SM SCT100 BKN150
     FM181200 08006KT P6SM BKN100 BKN150
      AMD LTD TO CLD AND VIS=



000
FTUS46 KOTX 171720
TAFGEG
TAF
KGEG 171720Z 1718/1818 VRB03KT P6SM SCT100 BKN150
     FM172000 21005KT P6SM SCT080 BKN120 BKN150
     FM180200 17003KT P6SM SCT150 BKN200
     FM181400 23007KT P6SM SCT080 OVC120=



000
FTUS46 KOTX 171720
TAFSFF
TAF
KSFF 171720Z 1718/1818 09004KT P6SM SCT100 BKN150
     FM180000 01003KT P6SM SCT150 BKN200
     FM181000 VRB02KT P6SM SCT100 BKN150
     FM181500 22006KT P6SM SCT080 OVC150=



000
FTUS46 KOTX 171720
TAFMWH
TAF
KMWH 171720Z 1718/1818 21007KT P6SM BKN150 BKN200
     FM180200 35005KT P6SM SCT150 BKN200
     FM180900 25004KT P6SM BKN080 OVC120=



000
FTUS46 KOTX 171720
TAFGEG
TAF
KGEG 171720Z 1718/1818 VRB03KT P6SM SCT100 BKN150
     FM172000 21005KT P6SM SCT080 BKN120 BKN150
     FM180200 17003KT P6SM SCT150 BKN200
     FM181400 23007KT P6SM SCT080 OVC120=



000
FTUS46 KOTX 171720
TAFPUW
TAF
KPUW 171720Z 1718/1818 11008KT P6SM SCT120 BKN180
     FM172000 27005KT P6SM SCT100 BKN150
     FM180100 30002KT P6SM SCT150 BKN200
     FM181200 25005KT P6SM SCT080 BKN120=



000
FTUS46 KOTX 171720
TAFEAT
TAF
KEAT 171720Z 1718/1818 VRB04KT P6SM SCT100 BKN150
     FM172000 13005KT P6SM SCT100 BKN120 OVC150
     FM180200 31005KT P6SM VCSH FEW100 BKN150 OVC200
     FM180600 31008KT P6SM VCSH BKN080 OVC100=



000
FTUS46 KOTX 171720
TAFPUW
TAF
KPUW 171720Z 1718/1818 11008KT P6SM SCT120 BKN180
     FM172000 27005KT P6SM SCT100 BKN150
     FM180100 30002KT P6SM SCT150 BKN200
     FM181200 25005KT P6SM SCT080 BKN120=



000
FTUS46 KOTX 171720
TAFEAT
TAF
KEAT 171720Z 1718/1818 VRB04KT P6SM SCT100 BKN150
     FM172000 13005KT P6SM SCT100 BKN120 OVC150
     FM180200 31005KT P6SM VCSH FEW100 BKN150 OVC200
     FM180600 31008KT P6SM VCSH BKN080 OVC100=



000
FTUS46 KOTX 171720
TAFLWS
TAF
KLWS 171720Z 1718/1818 10003KT P6SM FEW100 BKN150
     FM172000 31006KT P6SM FEW120 BKN200
     FM180300 23005KT P6SM BKN200
     FM180900 24005KT P6SM SCT100 BKN150=



000
FTUS46 KOTX 171720
TAFLWS
TAF
KLWS 171720Z 1718/1818 10003KT P6SM FEW100 BKN150
     FM172000 31006KT P6SM FEW120 BKN200
     FM180300 23005KT P6SM BKN200
     FM180900 24005KT P6SM SCT100 BKN150=



000
FTUS46 KOTX 171546 AAA
TAFPUW
TAF AMD
KPUW 171546Z 1716/1812 09005KT 6SM HZ SCT120 BKN180
     FM172000 27005KT P6SM SCT100 BKN150
     FM180100 30002KT P6SM SCT150 BKN200
     FM181000 25005KT P6SM SCT080 BKN120=



000
FTUS46 KOTX 171546 AAA
TAFPUW
TAF AMD
KPUW 171546Z 1716/1812 09005KT 6SM HZ SCT120 BKN180
     FM172000 27005KT P6SM SCT100 BKN150
     FM180100 30002KT P6SM SCT150 BKN200
     FM181000 25005KT P6SM SCT080 BKN120=



    US Dept of Commerce
    National Oceanic and Atmospheric Administration
    National Weather Service
    1325 East West Highway
    Silver Spring, MD 20910
    Page Author: NWS Internet Services Team
Disclaimer
Information Quality
Credits
Glossary
Privacy Policy
Freedom of Information Act (FOIA)
About Us
Career Opportunities